createdAt,value
2022-10-17T00:00:08.354Z,69.70
2022-10-17T00:03:11.970Z,69.81
2022-10-17T00:06:15.198Z,69.90
2022-10-17T00:09:17.670Z,70.03
2022-10-17T00:12:19.872Z,70.10
2022-10-17T00:15:22.488Z,70.11
2022-10-17T00:18:25.207Z,70.25
2022-10-17T00:21:27.790Z,70.29
2022-10-17T00:24:31.682Z,70.39
2022-10-17T00:27:39.114Z,70.44
2022-10-17T00:30:41.928Z,70.51
2022-10-17T00:33:44.672Z,70.53
2022-10-17T00:36:46.904Z,70.73
2022-10-17T00:39:49.632Z,70.84
2022-10-17T00:42:53.294Z,70.94
2022-10-17T00:45:56.865Z,71.05
2022-10-17T00:49:03.107Z,71.19
2022-10-17T00:52:11.694Z,71.25
2022-10-17T00:55:20.036Z,71.33
2022-10-17T00:58:22.842Z,71.38
2022-10-17T01:01:25.431Z,71.40
2022-10-17T01:04:28.010Z,71.36
2022-10-17T01:07:34.664Z,71.49
2022-10-17T01:10:48.131Z,71.60
2022-10-17T01:13:58.297Z,71.72
2022-10-17T01:17:11.404Z,71.86
2022-10-17T01:20:39.606Z,72.00
2022-10-17T01:24:00.901Z,72.16
2022-10-17T01:27:34.138Z,72.21
2022-10-17T01:31:08.051Z,72.20
2022-10-17T01:34:18.893Z,72.24
2022-10-17T01:37:41.071Z,72.20
2022-10-17T01:40:52.705Z,72.28
2022-10-17T01:44:13.129Z,72.38
2022-10-17T01:47:21.866Z,72.45
2022-10-17T01:50:31.231Z,72.54
2022-10-17T01:53:42.824Z,72.56
2022-10-17T01:56:47.771Z,72.63
2022-10-17T01:59:52.997Z,72.67
2022-10-17T02:03:00.254Z,72.71
2022-10-17T02:06:04.619Z,72.80
2022-10-17T02:09:23.193Z,72.91
2022-10-17T02:12:52.035Z,72.93
2022-10-17T02:16:06.258Z,72.94
2022-10-17T02:19:21.040Z,73.02
2022-10-17T02:22:31.969Z,73.15
2022-10-17T02:25:41.623Z,73.25
2022-10-17T02:28:58.803Z,73.33
2022-10-17T02:32:08.810Z,73.33
2022-10-17T02:35:15.590Z,73.51
2022-10-17T02:38:18.661Z,73.68
2022-10-17T02:41:24.018Z,73.71
2022-10-17T02:44:28.669Z,73.82
2022-10-17T02:47:41.750Z,73.84
2022-10-17T02:50:57.401Z,74.00
2022-10-17T02:54:17.147Z,73.99
2022-10-17T02:57:31.065Z,73.92
2022-10-17T03:00:35.411Z,74.02
2022-10-17T03:03:38.107Z,74.01
2022-10-17T03:06:41.364Z,74.14
2022-10-17T03:09:43.919Z,74.16
2022-10-17T03:12:46.180Z,74.15
2022-10-17T03:15:48.772Z,74.10
2022-10-17T03:18:51.322Z,74.14
2022-10-17T03:21:54.363Z,74.24
2022-10-17T03:24:57.263Z,74.24
2022-10-17T03:28:01.511Z,74.27
2022-10-17T03:31:11.180Z,74.32
2022-10-17T03:34:16.707Z,74.50
2022-10-17T03:37:19.089Z,74.57
2022-10-17T03:40:22.484Z,74.65
2022-10-17T03:43:24.716Z,74.66
2022-10-17T03:46:27.195Z,74.71
2022-10-17T03:49:29.999Z,74.78
2022-10-17T03:52:32.577Z,74.81
2022-10-17T03:55:35.670Z,74.77
2022-10-17T03:58:38.492Z,74.82
2022-10-17T04:01:41.572Z,74.80
2022-10-17T04:04:44.367Z,74.81
2022-10-17T04:07:46.608Z,74.83
2022-10-17T04:10:50.043Z,74.91
2022-10-17T04:13:57.146Z,74.90
2022-10-17T04:17:00.838Z,74.96
2022-10-17T04:20:03.828Z,75.03
2022-10-17T04:23:06.518Z,75.10
2022-10-17T04:26:09.768Z,75.12
2022-10-17T04:29:12.285Z,75.20
2022-10-17T04:32:15.214Z,75.19
2022-10-17T04:35:18.035Z,75.04
2022-10-17T04:38:23.743Z,75.01
2022-10-17T04:41:28.905Z,75.05
2022-10-17T04:44:33.670Z,75.04
2022-10-17T04:47:36.439Z,74.93
2022-10-17T04:50:38.697Z,75.04
2022-10-17T04:53:43.406Z,75.09
2022-10-17T04:56:47.179Z,75.24
2022-10-17T04:59:50.059Z,75.30
2022-10-17T05:02:53.951Z,75.30
2022-10-17T05:05:56.455Z,75.38
2022-10-17T05:08:59.139Z,75.45
2022-10-17T05:12:04.293Z,75.43
2022-10-17T05:15:10.772Z,75.42
2022-10-17T05:18:13.346Z,75.35
2022-10-17T05:21:17.328Z,75.25
2022-10-17T05:24:19.859Z,75.33
2022-10-17T05:27:23.429Z,75.33
2022-10-17T05:30:25.924Z,75.35
2022-10-17T05:33:30.566Z,75.32
2022-10-17T05:36:33.159Z,75.32
2022-10-17T05:39:35.767Z,75.23
2022-10-17T05:45:44.012Z,75.45
2022-10-17T05:48:47.834Z,75.23
2022-10-17T05:51:50.080Z,75.05
2022-10-17T05:54:52.622Z,74.87
2022-10-17T05:57:55.388Z,74.82
2022-10-17T06:01:00.673Z,74.71
2022-10-17T06:04:03.361Z,74.53
2022-10-17T06:07:06.682Z,74.47
2022-10-17T06:10:12.365Z,74.27
2022-10-17T06:13:15.393Z,74.22
2022-10-17T06:16:18.108Z,73.97
2022-10-17T06:19:20.622Z,73.86
2022-10-17T06:22:23.592Z,73.70
2022-10-17T06:25:26.055Z,73.54
2022-10-17T06:28:29.277Z,73.36
2022-10-17T06:31:33.664Z,73.19
2022-10-17T06:34:38.916Z,73.00
2022-10-17T06:37:41.751Z,72.97
2022-10-17T06:40:44.779Z,72.69
2022-10-17T06:43:47.768Z,72.46
2022-10-17T06:46:59.793Z,72.13
2022-10-17T06:50:02.238Z,71.74
2022-10-17T06:53:05.232Z,71.37
2022-10-17T06:56:10.890Z,70.91
2022-10-17T06:59:15.513Z,70.44
2022-10-17T07:02:20.400Z,69.96
2022-10-17T07:05:24.541Z,69.49
2022-10-17T07:08:27.510Z,68.68
2022-10-17T07:11:30.084Z,66.95
2022-10-17T07:14:33.025Z,66.48
2022-10-17T07:17:35.522Z,65.05
2022-10-17T07:20:38.076Z,64.16
2022-10-17T07:23:41.479Z,63.05
2022-10-17T07:26:44.899Z,62.42
2022-10-17T07:29:49.857Z,61.63
2022-10-17T07:32:57.862Z,60.46
2022-10-17T07:36:01.520Z,58.99
2022-10-17T07:39:03.927Z,55.78
2022-10-17T07:42:07.820Z,51.56
2022-10-17T07:45:10.428Z,49.37
2022-10-17T07:48:12.874Z,46.77
2022-10-17T07:51:28.592Z,43.20
2022-10-17T07:54:32.938Z,39.55
2022-10-17T07:57:35.669Z,39.54
2022-10-17T08:00:38.377Z,38.38
2022-10-17T08:03:42.874Z,37.65
2022-10-17T08:06:45.225Z,35.22
2022-10-17T08:09:47.904Z,35.61
2022-10-17T08:12:50.137Z,34.75
2022-10-17T08:15:52.717Z,35.50
2022-10-17T08:18:55.058Z,32.98
2022-10-17T08:21:59.158Z,30.67
2022-10-17T08:25:01.407Z,28.54
2022-10-17T08:28:03.985Z,26.36
2022-10-17T08:31:09.441Z,23.78
2022-10-17T08:34:11.950Z,22.67
2022-10-17T08:37:14.689Z,21.94
2022-10-17T08:40:22.503Z,20.62
2022-10-17T08:43:35.596Z,19.56
2022-10-17T08:46:42.357Z,18.82
2022-10-17T08:49:57.368Z,19.98
2022-10-17T08:53:38.672Z,18.59
2022-10-17T08:56:49.247Z,18.51
2022-10-17T08:59:54.360Z,17.68
2022-10-17T09:03:24.621Z,17.67
2022-10-17T09:06:39.570Z,16.17
2022-10-17T09:10:17.356Z,16.44
2022-10-17T09:14:01.734Z,15.78
2022-10-17T09:17:32.835Z,15.84
2022-10-17T09:20:59.183Z,17.72
2022-10-17T09:24:09.610Z,19.40
2022-10-17T09:27:40.683Z,21.05
2022-10-17T09:30:45.530Z,22.38
2022-10-17T09:33:55.249Z,23.56
2022-10-17T09:37:02.372Z,23.65
2022-10-17T09:40:08.793Z,24.59
2022-10-17T09:43:15.291Z,24.54
2022-10-17T09:46:36.746Z,25.73
2022-10-17T09:49:45.036Z,25.59
2022-10-17T09:52:49.391Z,26.21
2022-10-17T09:55:58.104Z,27.46
2022-10-17T09:59:00.698Z,29.69
2022-10-17T10:02:20.360Z,29.55
2022-10-17T10:05:23.101Z,29.02
2022-10-17T10:08:37.882Z,28.99
2022-10-17T10:11:52.381Z,28.92
2022-10-17T10:14:55.504Z,28.66
2022-10-17T10:17:58.471Z,28.51
2022-10-17T10:21:25.412Z,28.39
2022-10-17T10:24:31.036Z,28.26
2022-10-17T10:27:33.899Z,28.29
2022-10-17T10:30:39.788Z,27.95
2022-10-17T10:33:47.014Z,27.59
2022-10-17T10:37:17.137Z,27.68
2022-10-17T10:40:32.127Z,27.19
2022-10-17T10:43:34.597Z,26.94
2022-10-17T10:46:36.860Z,27.19
2022-10-17T10:49:39.691Z,27.88
2022-10-17T10:53:18.061Z,27.28
2022-10-17T10:56:49.917Z,27.28
2022-10-17T11:00:02.534Z,27.16
2022-10-17T11:03:24.476Z,27.42
2022-10-17T11:06:31.276Z,27.57
2022-10-17T11:09:42.668Z,27.91
2022-10-17T11:13:03.672Z,28.08
2022-10-17T11:16:25.070Z,28.48
2022-10-17T11:19:56.459Z,28.37
2022-10-17T11:23:09.816Z,28.62
2022-10-17T11:26:26.935Z,28.83
2022-10-17T11:29:32.804Z,28.96
2022-10-17T11:32:41.253Z,28.83
2022-10-17T11:35:47.403Z,28.67
2022-10-17T11:39:20.853Z,28.90
2022-10-17T11:42:33.113Z,29.00
2022-10-17T11:45:42.581Z,28.75
2022-10-17T11:49:24.785Z,28.82
2022-10-17T11:52:55.872Z,29.09
2022-10-17T11:56:01.132Z,28.40
2022-10-17T11:59:28.531Z,28.27
2022-10-17T12:02:44.399Z,28.49
2022-10-17T12:05:50.670Z,28.33
2022-10-17T12:09:08.714Z,28.43
2022-10-17T12:12:11.343Z,28.53
2022-10-17T12:15:13.519Z,28.30
2022-10-17T12:18:17.456Z,28.46
2022-10-17T12:21:19.765Z,28.14
2022-10-17T12:24:54.894Z,28.23
2022-10-17T12:28:06.163Z,27.63
2022-10-17T12:31:19.041Z,27.45
2022-10-17T12:34:24.226Z,27.44
2022-10-17T12:37:43.444Z,27.26
2022-10-17T12:40:49.086Z,27.27
2022-10-17T12:43:54.429Z,27.60
2022-10-17T12:47:08.570Z,28.16
2022-10-17T12:50:48.976Z,27.87
2022-10-17T12:53:59.114Z,28.99
2022-10-17T12:57:01.719Z,27.96
2022-10-17T13:00:49.832Z,26.94
2022-10-17T13:04:05.838Z,27.38
2022-10-17T13:07:19.100Z,27.53
2022-10-17T13:10:23.588Z,27.61
2022-10-17T13:13:33.731Z,28.03
2022-10-17T13:16:43.645Z,28.50
2022-10-17T13:19:46.979Z,28.81
2022-10-17T13:22:49.648Z,29.08
2022-10-17T13:26:22.005Z,29.57
2022-10-17T13:29:25.901Z,30.12
2022-10-17T13:32:36.982Z,30.80
2022-10-17T13:36:00.357Z,31.25
2022-10-17T13:39:13.089Z,30.83
2022-10-17T13:42:29.286Z,30.62
2022-10-17T13:45:34.756Z,30.39
2022-10-17T13:48:38.209Z,30.33
2022-10-17T13:51:44.986Z,30.57
2022-10-17T13:54:53.204Z,30.77
2022-10-17T13:57:56.168Z,30.92
2022-10-17T14:00:59.174Z,31.13
2022-10-17T14:04:09.048Z,31.32
2022-10-17T14:07:26.339Z,31.41
2022-10-17T14:10:34.586Z,31.67
2022-10-17T14:13:36.874Z,31.63
2022-10-17T14:16:42.393Z,31.72
2022-10-17T14:19:51.483Z,32.05
2022-10-17T14:23:21.605Z,32.30
2022-10-17T14:26:24.056Z,32.38
2022-10-17T14:29:53.528Z,32.66
2022-10-17T14:32:58.503Z,32.88
2022-10-17T14:36:02.632Z,33.02
2022-10-17T14:39:13.361Z,33.17
2022-10-17T14:42:21.794Z,33.38
2022-10-17T14:45:28.684Z,33.55
2022-10-17T14:48:33.985Z,33.88
2022-10-17T14:51:50.206Z,34.12
2022-10-17T14:55:12.199Z,34.37
2022-10-17T14:58:22.708Z,34.64
2022-10-17T15:01:25.235Z,35.02
2022-10-17T15:04:27.423Z,35.29
2022-10-17T15:07:29.943Z,35.32
2022-10-17T15:10:35.596Z,35.48
2022-10-17T15:13:43.304Z,35.68
2022-10-17T15:16:47.747Z,36.07
2022-10-17T15:19:50.833Z,36.03
2022-10-17T15:22:54.270Z,36.70
2022-10-17T15:25:56.776Z,36.97
2022-10-17T15:28:59.556Z,37.31
2022-10-17T15:32:02.135Z,37.73
2022-10-17T15:35:04.584Z,38.08
2022-10-17T15:38:07.444Z,38.45
2022-10-17T15:41:11.446Z,38.74
2022-10-17T15:44:14.561Z,39.01
2022-10-17T15:47:23.351Z,39.35
2022-10-17T15:50:26.175Z,39.77
2022-10-17T15:53:28.549Z,39.92
2022-10-17T15:56:42.211Z,40.59
2022-10-17T15:59:46.947Z,41.01
2022-10-17T16:02:50.428Z,41.18
2022-10-17T16:05:52.945Z,41.38
2022-10-17T16:08:55.170Z,41.69
2022-10-17T16:11:57.706Z,41.84
2022-10-17T16:14:59.924Z,42.04
2022-10-17T16:18:05.872Z,42.25
2022-10-17T16:21:14.406Z,42.45
2022-10-17T16:24:17.788Z,42.46
2022-10-17T16:27:20.051Z,42.68
2022-10-17T16:30:24.691Z,42.73
2022-10-17T16:33:26.944Z,42.90
2022-10-17T16:36:29.515Z,43.07
2022-10-17T16:39:31.786Z,43.24
2022-10-17T16:42:34.363Z,43.47
2022-10-17T16:45:36.616Z,43.63
2022-10-17T16:51:42.427Z,43.99
2022-10-17T16:54:44.927Z,44.25
2022-10-17T16:57:48.993Z,44.46
2022-10-17T17:00:52.099Z,44.48
2022-10-17T17:03:54.417Z,44.75
2022-10-17T17:06:57.128Z,45.12
2022-10-17T17:09:59.370Z,45.22
2022-10-17T17:13:03.231Z,45.50
2022-10-17T17:16:11.506Z,45.65
2022-10-17T17:19:16.905Z,46.02
2022-10-17T17:22:19.246Z,46.17
2022-10-17T17:25:22.800Z,46.58
2022-10-17T17:28:26.403Z,46.82
2022-10-17T17:31:31.396Z,47.08
2022-10-17T17:34:37.315Z,47.51
2022-10-17T17:37:39.845Z,47.87
2022-10-17T17:40:50.667Z,48.44
2022-10-17T17:43:54.612Z,48.65
2022-10-17T17:46:58.443Z,49.00
2022-10-17T17:50:02.367Z,49.07
2022-10-17T17:53:05.730Z,49.44
2022-10-17T17:56:17.822Z,49.75
2022-10-17T17:59:20.128Z,49.62
2022-10-17T18:02:22.994Z,49.67
2022-10-17T18:05:26.840Z,49.86
2022-10-17T18:08:29.201Z,49.92
2022-10-17T18:11:32.538Z,49.97
2022-10-17T18:14:34.886Z,49.85
2022-10-17T18:17:37.952Z,50.18
2022-10-17T18:20:42.413Z,50.48
2022-10-17T18:23:46.624Z,50.92
2022-10-17T18:26:49.947Z,51.14
2022-10-17T18:29:52.446Z,51.08
2022-10-17T18:32:54.674Z,51.32
2022-10-17T18:35:58.423Z,51.71
2022-10-17T18:39:01.780Z,51.96
2022-10-17T18:42:04.553Z,52.29
2022-10-17T18:45:11.609Z,52.55
2022-10-17T18:48:14.124Z,53.11
2022-10-17T18:51:20.469Z,53.64
2022-10-17T18:54:24.425Z,54.10
2022-10-17T18:57:26.790Z,54.55
2022-10-17T19:00:30.384Z,54.88
2022-10-17T19:03:32.949Z,55.16
2022-10-17T19:06:37.401Z,55.56
2022-10-17T19:09:39.669Z,55.90
2022-10-17T19:12:42.187Z,56.25
2022-10-17T19:15:44.525Z,56.62
2022-10-17T19:18:51.826Z,56.94
2022-10-17T19:21:54.103Z,57.13
2022-10-17T19:24:56.700Z,57.41
2022-10-17T19:27:59.144Z,57.72
2022-10-17T19:31:01.772Z,58.06
2022-10-17T19:34:04.517Z,58.31
2022-10-17T19:37:07.271Z,58.65
2022-10-17T19:40:10.269Z,58.87
2022-10-17T19:43:12.780Z,59.25
2022-10-17T19:46:18.463Z,59.49
2022-10-17T19:49:21.155Z,59.67
2022-10-17T19:52:23.459Z,59.85
2022-10-17T19:55:25.936Z,60.05
2022-10-17T19:58:28.796Z,60.33
2022-10-17T20:01:34.409Z,60.46
2022-10-17T20:04:42.094Z,60.79
2022-10-17T20:07:53.765Z,60.89
2022-10-17T20:10:56.297Z,61.18
2022-10-17T20:14:00.208Z,61.54
2022-10-17T20:17:02.753Z,61.62
2022-10-17T20:20:08.748Z,61.87
2022-10-17T20:23:30.005Z,62.07
2022-10-17T20:26:38.229Z,62.34
2022-10-17T20:29:41.864Z,62.42
2022-10-17T20:32:44.213Z,62.70
2022-10-17T20:35:48.767Z,62.87
2022-10-17T20:38:55.794Z,62.96
2022-10-17T20:41:58.359Z,63.07
2022-10-17T20:45:00.627Z,63.28
2022-10-17T20:48:03.966Z,63.54
2022-10-17T20:51:10.503Z,63.59
2022-10-17T20:54:13.138Z,63.67
2022-10-17T20:57:15.356Z,63.80
2022-10-17T21:00:17.975Z,64.02
2022-10-17T21:03:20.415Z,64.10
2022-10-17T21:06:23.861Z,64.37
2022-10-17T21:09:26.279Z,64.40
2022-10-17T21:12:36.770Z,64.40
2022-10-17T21:15:48.342Z,64.77
2022-10-17T21:18:53.328Z,64.73
2022-10-17T21:21:55.560Z,64.78
2022-10-17T21:24:58.089Z,64.92
2022-10-17T21:28:00.284Z,65.13
2022-10-17T21:31:12.160Z,65.29
2022-10-17T21:34:17.726Z,65.44
2022-10-17T21:37:20.497Z,65.61
2022-10-17T21:40:22.994Z,65.80
2022-10-17T21:43:25.517Z,65.88
2022-10-17T21:46:28.557Z,65.91
2022-10-17T21:49:31.161Z,65.95
2022-10-17T21:52:33.604Z,65.92
2022-10-17T21:55:37.595Z,65.94
2022-10-17T21:58:40.798Z,66.00
2022-10-17T22:01:45.481Z,66.06
2022-10-17T22:04:48.166Z,66.08
2022-10-17T22:07:50.387Z,66.24
2022-10-17T22:10:52.894Z,66.21
2022-10-17T22:14:01.238Z,66.12
2022-10-17T22:17:03.804Z,66.15
2022-10-17T22:20:06.639Z,66.30
2022-10-17T22:23:09.104Z,66.38
2022-10-17T22:26:13.433Z,66.32
2022-10-17T22:29:16.478Z,66.25
2022-10-17T22:32:21.668Z,66.32
2022-10-17T22:35:25.204Z,66.39
2022-10-17T22:38:28.102Z,66.55
2022-10-17T22:41:30.647Z,66.53
2022-10-17T22:44:33.076Z,66.61
2022-10-17T22:47:35.592Z,66.86
2022-10-17T22:50:41.709Z,66.76
2022-10-17T22:53:44.410Z,66.87
2022-10-17T22:56:46.660Z,66.78
2022-10-17T22:59:49.138Z,66.89
2022-10-17T23:02:54.884Z,66.79
2022-10-17T23:05:57.788Z,66.89
2022-10-17T23:09:00.021Z,66.80
2022-10-17T23:12:02.574Z,66.86
2022-10-17T23:15:05.167Z,66.82
2022-10-17T23:18:09.713Z,66.67
2022-10-17T23:21:12.001Z,66.59
2022-10-17T23:24:15.567Z,66.82
2022-10-17T23:27:17.827Z,66.68
2022-10-17T23:30:20.340Z,66.63
2022-10-17T23:33:22.546Z,66.83
2022-10-17T23:36:25.159Z,66.78
2022-10-17T23:39:27.592Z,66.79
2022-10-17T23:42:30.269Z,66.82
2022-10-17T23:45:36.146Z,67.00
2022-10-17T23:48:40.476Z,67.17
2022-10-17T23:51:42.695Z,67.12
2022-10-17T23:54:45.156Z,67.40
2022-10-17T23:57:47.392Z,67.44
